Time;durP1;ratioP1;P1;durP2;ratioP2;P2;SDS_P1;SDS_P2;PMS_P1;PMS_P2;Temp;Humidity;BMP_temperature;BMP_pressure;BME280_temperature;BME280_humidity;BME280_pressure;Samples;Min_cycle;Max_cycle;Signal;HPM_P1;HPM_P2
2022/10/09 00:01:53;;;;;;;10.15;9.15;;;9.50;91.60;;;;;;5061777;28;20525;-68
2022/10/09 00:04:20;;;;;;;11.10;10.00;;;9.40;91.60;;;;;;5042750;28;20417;-68
2022/10/09 00:06:46;;;;;;;11.30;10.20;;;9.40;91.30;;;;;;5042957;28;20591;-68
2022/10/09 00:09:15;;;;;;;11.70;10.02;;;9.40;91.40;;;;;;5052952;28;20431;-68
2022/10/09 00:11:42;;;;;;;10.73;9.83;;;9.40;91.30;;;;;;5062262;28;20419;-68
2022/10/09 00:14:09;;;;;;;9.98;9.07;;;9.30;91.30;;;;;;5062222;28;20480;-68
2022/10/09 00:16:36;;;;;;;11.40;10.30;;;9.30;91.50;;;;;;5062509;28;20407;-67
2022/10/09 00:19:02;;;;;;;10.10;9.20;;;9.30;91.40;;;;;;5062036;28;20420;-68
2022/10/09 00:21:32;;;;;;;11.30;10.20;;;9.20;91.40;;;;;;5055179;28;20913;-67
2022/10/09 00:24:01;;;;;;;11.20;10.10;;;9.20;91.50;;;;;;5060271;28;20510;-68
2022/10/09 00:26:29;;;;;;;11.67;10.57;;;9.10;91.50;;;;;;5061659;28;20491;-68
2022/10/09 00:28:56;;;;;;;10.40;9.40;;;9.00;91.70;;;;;;5061886;28;20446;-66
2022/10/09 00:31:24;;;;;;;11.00;9.90;;;9.00;92.30;;;;;;5062010;28;20415;-68
2022/10/09 00:33:50;;;;;;;10.88;9.85;;;9.00;92.00;;;;;;5063028;28;20458;-66
2022/10/09 00:36:20;;;;;;;10.20;9.30;;;9.00;92.10;;;;;;5057806;28;20429;-68
2022/10/09 00:38:47;;;;;;;10.52;9.43;;;8.90;92.20;;;;;;5042224;28;20568;-68
2022/10/09 00:41:16;;;;;;;10.93;9.60;;;8.90;92.90;;;;;;5059118;28;20897;-66
2022/10/09 00:43:47;;;;;;;10.43;9.43;;;9.00;92.50;;;;;;5062624;28;20538;-68
2022/10/09 00:46:25;;;;;;;10.18;9.18;;;9.00;92.40;;;;;;5063166;28;20441;-68
2022/10/09 00:48:59;;;;;;;9.40;8.50;;;9.00;92.30;;;;;;5059959;28;20419;-68
2022/10/09 00:51:26;;;;;;;9.60;8.60;;;9.00;92.20;;;;;;5048899;28;20944;-68
2022/10/09 00:53:53;;;;;;;9.30;8.50;;;8.90;91.90;;;;;;5040775;28;20417;-68
2022/10/09 00:56:20;;;;;;;9.85;8.18;;;8.80;91.80;;;;;;5057634;28;20415;-68
2022/10/09 00:58:53;;;;;;;8.90;7.90;;;8.70;92.00;;;;;;5060914;28;20422;-67
2022/10/09 01:01:20;;;;;;;9.30;8.30;;;8.70;92.00;;;;;;5061725;28;20435;-68
2022/10/09 01:03:46;;;;;;;8.32;7.53;;;8.60;91.80;;;;;;5061848;28;20502;-68
2022/10/09 01:06:18;;;;;;;8.60;7.70;;;8.50;91.70;;;;;;5049066;28;20435;-68
2022/10/09 01:08:51;;;;;;;8.70;7.80;;;8.40;91.70;;;;;;5055239;28;20426;-68
2022/10/09 01:11:28;;;;;;;8.25;7.45;;;8.30;91.70;;;;;;5061876;28;20778;-68
2022/10/09 01:14:04;;;;;;;10.13;7.70;;;8.30;91.90;;;;;;5061527;28;20451;-68
2022/10/09 01:16:35;;;;;;;8.45;7.55;;;8.30;92.00;;;;;;5062102;28;20484;-68
2022/10/09 01:19:11;;;;;;;9.57;7.60;;;8.30;91.80;;;;;;5057615;28;20644;-68
2022/10/09 01:21:41;;;;;;;8.37;7.60;;;8.30;91.90;;;;;;5041740;28;20497;-68
2022/10/09 01:24:19;;;;;;;8.20;7.30;;;8.30;92.00;;;;;;5041541;28;20806;-68
2022/10/09 01:27:04;;;;;;;8.13;7.43;;;8.30;91.70;;;;;;5056836;28;20431;-67
2022/10/09 01:29:35;;;;;;;8.30;7.60;;;8.20;92.00;;;;;;5061415;28;20478;-68
2022/10/09 01:32:04;;;;;;;8.60;7.80;;;8.20;92.10;;;;;;5042323;28;20494;-68
2022/10/09 01:34:32;;;;;;;9.73;7.70;;;8.20;91.80;;;;;;5047867;28;20772;-68
2022/10/09 01:37:00;;;;;;;8.10;7.38;;;8.10;92.00;;;;;;5042231;28;20424;-69
2022/10/09 01:39:29;;;;;;;8.30;7.33;;;8.10;91.90;;;;;;5041232;28;20475;-68
2022/10/09 01:41:58;;;;;;;8.55;7.75;;;8.10;91.80;;;;;;5056244;28;20425;-67
2022/10/09 01:44:27;;;;;;;7.85;7.05;;;8.00;91.70;;;;;;5059004;28;20546;-72
2022/10/09 01:46:54;;;;;;;8.30;7.50;;;8.00;91.60;;;;;;5057806;28;20435;-66
2022/10/09 01:49:34;;;;;;;8.48;7.55;;;7.90;91.60;;;;;;5062483;28;20481;-68
2022/10/09 01:52:08;;;;;;;7.80;7.00;;;7.90;91.70;;;;;;5057272;28;20433;-68
2022/10/09 01:54:42;;;;;;;8.67;7.77;;;7.90;91.90;;;;;;5064253;28;20463;-68
2022/10/09 01:57:13;;;;;;;8.50;7.70;;;7.90;91.90;;;;;;5064717;28;20495;-67
2022/10/09 01:59:44;;;;;;;8.20;7.50;;;7.80;91.90;;;;;;5065336;28;20613;-68
2022/10/09 02:02:11;;;;;;;8.13;7.32;;;7.80;92.20;;;;;;5063999;28;20491;-68
2022/10/09 02:04:42;;;;;;;8.20;7.40;;;7.70;92.20;;;;;;5062118;28;20454;-68
2022/10/09 02:07:09;;;;;;;9.45;7.88;;;7.70;92.40;;;;;;5063932;28;20427;-68
2022/10/09 02:09:38;;;;;;;7.72;7.03;;;7.70;92.50;;;;;;5064677;28;20416;-67
2022/10/09 02:12:07;;;;;;;8.30;7.53;;;7.80;92.50;;;;;;5064740;28;20463;-66
2022/10/09 02:14:36;;;;;;;8.33;7.53;;;7.80;92.40;;;;;;5065007;28;20912;-68
2022/10/09 02:17:08;;;;;;;8.52;7.63;;;7.80;92.20;;;;;;5064495;28;20407;-68
2022/10/09 02:19:38;;;;;;;8.23;7.53;;;7.80;92.10;;;;;;5061289;28;20497;-68
2022/10/09 02:22:10;;;;;;;8.93;8.00;;;7.80;92.20;;;;;;5064083;28;20491;-67
2022/10/09 02:24:39;;;;;;;8.35;7.55;;;7.80;92.20;;;;;;5063399;28;20462;-68
2022/10/09 02:27:06;;;;;;;9.50;8.30;;;7.70;92.10;;;;;;5064545;28;20457;-68
2022/10/09 02:29:35;;;;;;;8.87;7.93;;;7.70;92.40;;;;;;5064250;28;20597;-68
2022/10/09 02:32:02;;;;;;;9.13;8.23;;;7.70;92.60;;;;;;5061656;28;20431;-68
2022/10/09 02:34:29;;;;;;;9.38;7.45;;;7.70;92.50;;;;;;5063836;28;20511;-68
2022/10/09 02:36:55;;;;;;;8.57;7.78;;;7.70;92.40;;;;;;5064016;28;20408;-67
2022/10/09 02:39:22;;;;;;;8.68;7.88;;;7.60;92.60;;;;;;5064525;28;20420;-68
2022/10/09 02:41:49;;;;;;;9.30;8.50;;;7.60;92.60;;;;;;5063835;28;20681;-68
2022/10/09 02:44:16;;;;;;;9.00;8.10;;;7.60;92.70;;;;;;5063782;28;20419;-68
2022/10/09 02:46:44;;;;;;;9.02;8.20;;;7.60;92.90;;;;;;5061941;28;20538;-66
2022/10/09 02:49:11;;;;;;;10.02;8.25;;;7.50;92.90;;;;;;5061846;28;20502;-67
2022/10/09 02:51:38;;;;;;;8.70;7.70;;;7.50;92.90;;;;;;5064082;28;20423;-68
2022/10/09 02:54:05;;;;;;;9.00;8.10;;;7.50;92.80;;;;;;5061451;28;20499;-68
2022/10/09 02:56:32;;;;;;;9.18;8.38;;;7.40;92.70;;;;;;5063186;28;20434;-68
2022/10/09 02:58:59;;;;;;;9.40;8.30;;;7.40;92.70;;;;;;5065454;28;20424;-68
2022/10/09 03:01:25;;;;;;;9.43;8.40;;;7.40;93.00;;;;;;5062564;28;20546;-66
2022/10/09 03:03:54;;;;;;;9.60;8.70;;;7.40;92.90;;;;;;5063297;28;20740;-69
2022/10/09 03:06:23;;;;;;;10.10;9.10;;;7.30;92.70;;;;;;5063903;28;20522;-68
2022/10/09 03:08:52;;;;;;;10.27;9.27;;;7.30;92.70;;;;;;5063935;28;20436;-68
2022/10/09 03:11:21;;;;;;;9.10;8.27;;;7.30;92.90;;;;;;5063326;28;20408;-68
2022/10/09 03:13:48;;;;;;;9.15;8.20;;;7.20;93.00;;;;;;5063462;28;20423;-66
2022/10/09 03:16:16;;;;;;;8.80;7.85;;;7.20;93.00;;;;;;5062234;28;20431;-68
2022/10/09 03:18:44;;;;;;;8.90;8.13;;;7.30;93.00;;;;;;5047274;28;20424;-68
2022/10/09 03:21:14;;;;;;;9.25;8.45;;;7.30;93.20;;;;;;5043827;28;20524;-68
2022/10/09 03:23:41;;;;;;;9.30;8.50;;;7.20;92.90;;;;;;5043017;28;20421;-69
2022/10/09 03:26:10;;;;;;;10.55;9.55;;;7.20;92.80;;;;;;5046642;28;20433;-66
2022/10/09 03:28:38;;;;;;;9.40;8.40;;;7.20;93.00;;;;;;5063046;28;20418;-68
2022/10/09 03:31:05;;;;;;;9.10;8.20;;;7.20;93.00;;;;;;5062697;28;20455;-67
2022/10/09 03:33:32;;;;;;;8.93;8.02;;;7.20;93.00;;;;;;5060101;28;21088;-68
2022/10/09 03:35:58;;;;;;;8.82;8.05;;;7.20;93.00;;;;;;5062147;28;20420;-67
2022/10/09 03:38:27;;;;;;;9.00;8.20;;;7.20;93.10;;;;;;5061755;28;20796;-68
2022/10/09 03:40:54;;;;;;;8.85;7.95;;;7.20;93.10;;;;;;5065204;28;20428;-69
2022/10/09 03:43:21;;;;;;;9.70;8.70;;;7.10;93.20;;;;;;5059951;28;20425;-69
2022/10/09 03:45:48;;;;;;;8.98;8.18;;;7.10;93.30;;;;;;5064937;28;20504;-69
2022/10/09 03:48:15;;;;;;;8.52;7.80;;;7.20;93.20;;;;;;5065047;28;20474;-68
2022/10/09 03:50:42;;;;;;;9.35;8.30;;;7.10;93.10;;;;;;5063342;28;20431;-68
2022/10/09 03:53:11;;;;;;;9.35;8.40;;;7.10;93.20;;;;;;5061796;28;20435;-69
2022/10/09 03:55:40;;;;;;;9.23;8.30;;;7.10;93.30;;;;;;5061565;28;20435;-70
2022/10/09 03:58:07;;;;;;;8.77;7.97;;;7.10;93.20;;;;;;5062003;28;20886;-68
2022/10/09 04:00:35;;;;;;;8.95;8.05;;;7.10;93.20;;;;;;5061387;28;20427;-68
2022/10/09 04:03:02;;;;;;;8.55;7.72;;;7.00;92.90;;;;;;5060922;28;20830;-67
2022/10/09 04:05:32;;;;;;;9.15;8.30;;;7.00;92.90;;;;;;5062422;28;20537;-66
2022/10/09 04:07:59;;;;;;;9.43;8.52;;;6.90;92.90;;;;;;5061968;28;20868;-68
2022/10/09 04:10:25;;;;;;;8.77;7.88;;;6.90;92.90;;;;;;5061739;28;20431;-67
2022/10/09 04:12:53;;;;;;;9.00;8.20;;;6.90;93.10;;;;;;5061899;28;20630;-68
2022/10/09 04:15:20;;;;;;;8.98;8.07;;;6.90;93.10;;;;;;5063271;28;20422;-68
2022/10/09 04:17:47;;;;;;;9.00;8.10;;;6.90;93.00;;;;;;5060207;28;20444;-65
2022/10/09 04:20:14;;;;;;;9.10;8.30;;;6.80;93.00;;;;;;5042351;28;20413;-67
2022/10/09 04:22:41;;;;;;;8.70;7.90;;;6.90;93.20;;;;;;5042783;28;20421;-68
2022/10/09 04:25:08;;;;;;;9.10;8.20;;;6.80;93.10;;;;;;5100557;22;20436;-71
2022/10/09 04:27:35;;;;;;;9.40;8.50;;;6.80;93.20;;;;;;5116497;27;20955;-70
2022/10/09 04:30:03;;;;;;;9.30;8.18;;;6.80;93.10;;;;;;5128813;28;20426;-71
2022/10/09 04:32:30;;;;;;;8.93;8.10;;;6.80;93.50;;;;;;5121840;27;20432;-69
2022/10/09 04:34:57;;;;;;;9.18;8.10;;;6.80;93.00;;;;;;5116659;28;20408;-70
2022/10/09 04:37:24;;;;;;;8.93;8.00;;;6.70;93.00;;;;;;5108450;28;20420;-70
2022/10/09 04:39:50;;;;;;;10.35;7.90;;;6.70;93.20;;;;;;5116272;27;20423;-70
2022/10/09 04:42:17;;;;;;;8.13;7.32;;;6.70;93.20;;;;;;5123464;27;20937;-70
2022/10/09 04:44:44;;;;;;;8.60;7.80;;;6.80;93.10;;;;;;5114496;27;20424;-70
2022/10/09 04:47:12;;;;;;;9.40;8.60;;;6.70;93.00;;;;;;5118482;27;20431;-70
2022/10/09 04:49:39;;;;;;;8.80;7.90;;;6.70;93.00;;;;;;5116462;28;20426;-70
2022/10/09 04:52:06;;;;;;;8.25;7.55;;;6.60;92.90;;;;;;5112453;28;20476;-70
2022/10/09 04:54:33;;;;;;;8.63;7.82;;;6.60;93.00;;;;;;5111230;28;20412;-70
2022/10/09 04:57:00;;;;;;;9.38;8.40;;;6.60;93.20;;;;;;5130600;28;20414;-69
2022/10/09 04:59:26;;;;;;;9.13;8.33;;;6.60;93.30;;;;;;5119660;27;20436;-70
2022/10/09 05:01:53;;;;;;;10.20;8.32;;;6.50;93.40;;;;;;5111974;27;20424;-69
2022/10/09 05:04:21;;;;;;;8.90;8.10;;;6.60;93.50;;;;;;5115600;28;20763;-70
2022/10/09 05:06:48;;;;;;;9.20;8.30;;;6.50;93.50;;;;;;5108559;27;20416;-68
2022/10/09 05:09:15;;;;;;;9.55;8.60;;;6.50;93.50;;;;;;5120589;28;20431;-70
2022/10/09 05:11:41;;;;;;;9.70;8.80;;;6.50;93.50;;;;;;5123192;28;20426;-70
2022/10/09 05:14:09;;;;;;;10.02;9.05;;;6.50;93.50;;;;;;5116658;27;20430;-70
2022/10/09 05:16:36;;;;;;;10.15;9.18;;;6.40;93.60;;;;;;5119120;27;20519;-69
2022/10/09 05:19:03;;;;;;;10.52;9.43;;;6.40;93.60;;;;;;5123460;27;20418;-69
2022/10/09 05:21:31;;;;;;;10.52;9.40;;;6.30;93.70;;;;;;5132679;27;20415;-70
2022/10/09 05:23:58;;;;;;;11.43;9.25;;;6.40;93.90;;;;;;5132578;27;20441;-70
2022/10/09 05:26:26;;;;;;;9.52;8.57;;;6.30;93.90;;;;;;5132322;27;20411;-71
2022/10/09 05:28:52;;;;;;;8.57;7.88;;;6.40;94.00;;;;;;5125095;27;20430;-70
2022/10/09 05:31:21;;;;;;;9.70;8.75;;;6.40;93.90;;;;;;5128505;27;20866;-70
2022/10/09 05:33:48;;;;;;;9.48;8.55;;;6.40;93.90;;;;;;5122259;27;20432;-70
2022/10/09 05:36:15;;;;;;;9.68;8.77;;;6.30;93.90;;;;;;5131544;27;20862;-70
2022/10/09 05:38:44;;;;;;;9.20;8.30;;;6.40;94.30;;;;;;5131528;27;20407;-70
2022/10/09 05:41:13;;;;;;;9.00;8.10;;;6.40;93.80;;;;;;5131813;27;20418;-69
2022/10/09 05:43:42;;;;;;;10.90;8.88;;;6.40;93.80;;;;;;5129592;27;20829;-70
2022/10/09 05:46:11;;;;;;;9.55;8.75;;;6.40;93.80;;;;;;5130581;27;20942;-70
2022/10/09 05:48:38;;;;;;;9.50;8.65;;;6.40;93.90;;;;;;5124624;27;20456;-70
2022/10/09 05:51:11;;;;;;;9.00;8.20;;;6.40;94.00;;;;;;5121545;27;20955;-69
2022/10/09 05:53:38;;;;;;;9.20;8.30;;;6.50;94.00;;;;;;5123100;27;20417;-70
2022/10/09 05:56:14;;;;;;;9.45;8.55;;;6.40;93.80;;;;;;5132343;27;20479;-69
2022/10/09 05:58:41;;;;;;;9.20;8.30;;;6.40;93.90;;;;;;5124421;27;20465;-69
2022/10/09 06:01:08;;;;;;;8.68;7.97;;;6.50;94.00;;;;;;5118208;27;20428;-69
2022/10/09 06:03:36;;;;;;;9.05;8.18;;;6.50;93.90;;;;;;5119634;27;20464;-69
2022/10/09 06:06:04;;;;;;;9.43;8.50;;;6.50;93.90;;;;;;5131882;27;20406;-69
2022/10/09 06:08:33;;;;;;;8.48;7.68;;;6.50;93.80;;;;;;5122970;27;20462;-69
2022/10/09 06:11:07;;;;;;;9.57;8.10;;;6.50;93.90;;;;;;5130252;27;20434;-69
2022/10/09 06:13:35;;;;;;;8.70;7.90;;;6.60;93.90;;;;;;5125142;27;20515;-70
2022/10/09 06:16:02;;;;;;;9.70;8.20;;;6.60;93.80;;;;;;5119533;27;20434;-70
2022/10/09 06:18:29;;;;;;;8.82;7.93;;;6.60;93.70;;;;;;5128223;27;20422;-68
2022/10/09 06:20:57;;;;;;;8.80;7.90;;;6.60;93.40;;;;;;5127852;27;20423;-71
2022/10/09 06:23:25;;;;;;;8.68;7.63;;;6.60;93.40;;;;;;5122669;27;20416;-69
2022/10/09 06:25:52;;;;;;;9.50;8.45;;;6.50;93.30;;;;;;5125585;27;20448;-70
2022/10/09 06:28:19;;;;;;;9.38;8.20;;;6.60;93.40;;;;;;5127741;27;20424;-69
2022/10/09 06:30:48;;;;;;;8.70;7.80;;;6.60;93.50;;;;;;5114267;27;20412;-71
2022/10/09 06:33:15;;;;;;;8.90;8.00;;;6.60;93.40;;;;;;5126162;27;20415;-70
2022/10/09 06:35:42;;;;;;;8.50;7.70;;;6.60;93.50;;;;;;5130220;27;20908;-70
2022/10/09 06:38:09;;;;;;;8.90;8.00;;;6.70;93.60;;;;;;5122369;27;20403;-69
2022/10/09 06:40:36;;;;;;;8.27;7.57;;;6.70;93.50;;;;;;5124598;27;20852;-70
2022/10/09 06:43:03;;;;;;;8.43;7.72;;;6.80;93.40;;;;;;5125519;27;20485;-69
2022/10/09 06:45:30;;;;;;;8.43;7.63;;;6.70;93.20;;;;;;5124562;27;20406;-69
2022/10/09 06:47:58;;;;;;;9.07;8.18;;;6.80;93.00;;;;;;5126182;27;20418;-70
2022/10/09 06:50:25;;;;;;;8.13;7.32;;;6.80;93.10;;;;;;5122938;27;20422;-69
2022/10/09 06:52:52;;;;;;;8.10;7.40;;;6.90;93.00;;;;;;5125558;27;20856;-69
2022/10/09 06:55:19;;;;;;;9.68;7.93;;;6.90;92.90;;;;;;5128617;27;20426;-69
2022/10/09 06:57:46;;;;;;;9.63;7.77;;;7.00;92.90;;;;;;5126201;27;20542;-70
2022/10/09 07:00:14;;;;;;;8.35;7.40;;;7.00;92.80;;;;;;5121455;27;20449;-69
2022/10/09 07:02:41;;;;;;;8.15;7.30;;;7.00;92.40;;;;;;5126157;27;20433;-71
2022/10/09 07:05:09;;;;;;;8.25;7.55;;;7.10;92.40;;;;;;5119291;27;20511;-70
2022/10/09 07:07:39;;;;;;;8.75;7.95;;;7.20;92.50;;;;;;5124456;27;20463;-70
2022/10/09 07:10:07;;;;;;;8.20;7.40;;;7.20;92.20;;;;;;5122551;27;20423;-69
2022/10/09 07:12:34;;;;;;;7.45;6.57;;;7.30;91.90;;;;;;5127671;27;20426;-69
2022/10/09 07:15:01;;;;;;;7.47;6.80;;;7.40;91.50;;;;;;5115317;27;20422;-69
2022/10/09 07:17:28;;;;;;;8.02;7.22;;;7.40;91.40;;;;;;5122600;27;20430;-69
2022/10/09 07:19:54;;;;;;;7.47;6.85;;;7.50;91.10;;;;;;5126160;27;20956;-70
2022/10/09 07:22:22;;;;;;;7.57;6.50;;;7.60;91.00;;;;;;5119101;27;20940;-70
2022/10/09 07:24:49;;;;;;;7.80;7.10;;;7.80;90.90;;;;;;5128134;27;20418;-71
2022/10/09 07:27:16;;;;;;;7.57;6.88;;;7.90;90.30;;;;;;5119597;27;20920;-69
2022/10/09 07:29:43;;;;;;;7.40;6.60;;;8.10;90.20;;;;;;5119167;27;20437;-69
2022/10/09 07:32:10;;;;;;;7.10;6.50;;;8.20;89.80;;;;;;5128160;27;20824;-69
2022/10/09 07:34:37;;;;;;;7.10;6.40;;;8.40;89.60;;;;;;5116686;27;20419;-71
2022/10/09 07:37:04;;;;;;;7.60;6.90;;;8.60;87.50;;;;;;5125829;27;20410;-71
2022/10/09 07:39:33;;;;;;;7.53;6.75;;;8.80;86.50;;;;;;5120691;27;20412;-70
2022/10/09 07:42:00;;;;;;;6.70;6.10;;;8.90;85.30;;;;;;5125695;27;20433;-69
2022/10/09 07:44:27;;;;;;;7.30;6.60;;;9.10;84.80;;;;;;5118411;27;20435;-69
2022/10/09 07:46:54;;;;;;;7.72;7.03;;;9.20;82.90;;;;;;5126104;27;20413;-69
2022/10/09 07:49:21;;;;;;;8.10;6.47;;;9.30;82.50;;;;;;5125513;27;20422;-69
2022/10/09 07:51:48;;;;;;;7.07;6.38;;;9.50;83.10;;;;;;5127668;27;20514;-71
2022/10/09 07:54:15;;;;;;;8.32;7.53;;;9.60;81.90;;;;;;5128728;27;20423;-69
2022/10/09 07:56:43;;;;;;;7.50;6.80;;;9.80;80.90;;;;;;5119321;27;20953;-69
2022/10/09 07:59:13;;;;;;;8.52;7.70;;;10.00;79.50;;;;;;5124742;27;20966;-70
2022/10/09 08:01:41;;;;;;;8.52;7.82;;;10.00;79.40;;;;;;5118214;27;20456;-71
2022/10/09 08:04:08;;;;;;;8.53;7.80;;;10.20;78.70;;;;;;5127872;27;20421;-68
2022/10/09 08:06:35;;;;;;;8.38;7.68;;;10.40;77.70;;;;;;5128827;27;20453;-70
2022/10/09 08:09:04;;;;;;;8.55;7.85;;;10.50;76.60;;;;;;5119739;27;20424;-70
2022/10/09 08:11:31;;;;;;;8.80;8.10;;;10.60;75.30;;;;;;5120191;27;20418;-70
2022/10/09 08:13:59;;;;;;;9.90;9.00;;;10.70;75.70;;;;;;5127075;27;20430;-69
2022/10/09 08:16:27;;;;;;;10.20;9.30;;;10.90;75.60;;;;;;5130351;27;20422;-70
2022/10/09 08:18:56;;;;;;;9.30;8.60;;;11.10;74.80;;;;;;5131035;27;20413;-69
2022/10/09 08:21:23;;;;;;;8.13;7.32;;;11.30;73.30;;;;;;5129308;27;20515;-71
2022/10/09 08:23:53;;;;;;;9.30;8.50;;;11.40;72.20;;;;;;5122977;27;20500;-69
2022/10/09 08:26:22;;;;;;;7.40;6.70;;;11.60;72.50;;;;;;5128537;27;20486;-68
2022/10/09 08:28:53;;;;;;;6.60;5.97;;;11.70;72.10;;;;;;5124056;27;20506;-69
2022/10/09 08:31:22;;;;;;;8.13;6.30;;;11.90;71.40;;;;;;5121513;27;20402;-68
2022/10/09 08:33:52;;;;;;;6.53;5.93;;;12.00;71.10;;;;;;5127974;27;20489;-70
2022/10/09 08:36:19;;;;;;;7.30;6.60;;;12.30;70.00;;;;;;5119345;28;20414;-70
2022/10/09 08:38:46;;;;;;;6.70;6.10;;;12.50;69.60;;;;;;5126183;27;20437;-69
2022/10/09 08:41:21;;;;;;;6.75;6.10;;;12.80;69.10;;;;;;5122520;28;20429;-69
2022/10/09 08:43:52;;;;;;;6.70;6.00;;;13.20;67.40;;;;;;5127290;27;20433;-69
2022/10/09 08:46:25;;;;;;;7.90;7.20;;;13.50;65.70;;;;;;5119730;27;20434;-70
2022/10/09 08:48:54;;;;;;;7.60;6.97;;;13.50;65.60;;;;;;5126539;27;20935;-69
2022/10/09 08:51:25;;;;;;;7.15;6.45;;;13.70;65.20;;;;;;5123275;27;20958;-68
2022/10/09 08:53:58;;;;;;;8.23;7.60;;;13.90;64.20;;;;;;5122630;27;20422;-70
2022/10/09 08:56:26;;;;;;;7.50;6.80;;;14.10;63.40;;;;;;5132841;27;20489;-70
2022/10/09 08:58:53;;;;;;;7.88;7.28;;;14.10;63.60;;;;;;5131146;27;20422;-70
2022/10/09 09:01:35;;;;;;;7.85;7.00;;;14.10;63.20;;;;;;5119587;27;20423;-69
2022/10/09 09:04:27;;;;;;;7.65;6.85;;;14.50;63.30;;;;;;5123424;27;20433;-69
2022/10/09 09:07:02;;;;;;;8.05;7.25;;;15.00;61.70;;;;;;5132272;27;20410;-65
2022/10/09 09:09:40;;;;;;;7.30;6.60;;;15.10;60.40;;;;;;5132301;27;20536;-70
2022/10/09 09:12:15;;;;;;;7.20;6.60;;;15.20;60.30;;;;;;5131909;27;20422;-70
2022/10/09 09:14:55;;;;;;;7.60;6.10;;;15.40;59.30;;;;;;5125731;27;20427;-70
2022/10/09 09:17:29;;;;;;;6.43;5.82;;;15.50;59.70;;;;;;5127456;27;20457;-70
2022/10/09 09:20:04;;;;;;;6.55;6.05;;;15.90;58.70;;;;;;5131920;27;20415;-70
2022/10/09 09:22:33;;;;;;;5.67;5.17;;;16.20;57.70;;;;;;5131494;27;20422;-71
2022/10/09 09:25:00;;;;;;;5.43;4.93;;;16.40;57.20;;;;;;5120380;27;20416;-70
2022/10/09 09:27:31;;;;;;;5.30;4.80;;;16.50;56.60;;;;;;5131643;27;20421;-71
2022/10/09 09:30:04;;;;;;;5.45;4.80;;;16.60;55.70;;;;;;5130481;27;20943;-70
2022/10/09 09:32:33;;;;;;;5.00;4.20;;;16.60;55.80;;;;;;5116520;27;20870;-70
2022/10/09 09:35:13;;;;;;;5.00;4.22;;;16.60;56.10;;;;;;5131465;27;20772;-70
2022/10/09 09:37:39;;;;;;;5.63;3.80;;;16.80;55.10;;;;;;5131767;27;20410;-71
2022/10/09 09:40:13;;;;;;;7.35;4.10;;;16.90;54.80;;;;;;5130636;27;20426;-72
2022/10/09 09:42:40;;;;;;;5.57;3.47;;;16.90;54.30;;;;;;5128599;27;21115;-70
2022/10/09 09:45:16;;;;;;;4.37;3.30;;;16.90;54.30;;;;;;5121104;27;20543;-70
2022/10/09 09:47:49;;;;;;;3.90;2.78;;;16.80;54.70;;;;;;5120089;27;20929;-71
2022/10/09 09:50:27;;;;;;;3.97;2.80;;;17.00;54.50;;;;;;5131473;27;20407;-70
2022/10/09 09:52:55;;;;;;;3.20;2.90;;;17.20;52.70;;;;;;5131492;27;20403;-71
2022/10/09 09:55:26;;;;;;;4.43;3.05;;;17.30;52.80;;;;;;5131118;27;20911;-70
2022/10/09 09:58:00;;;;;;;5.53;2.80;;;17.30;52.60;;;;;;5122753;27;20431;-71
2022/10/09 10:00:27;;;;;;;3.15;2.60;;;17.50;52.40;;;;;;5121207;27;20418;-71
2022/10/09 10:03:04;;;;;;;4.00;2.63;;;17.60;52.00;;;;;;5124525;27;20426;-71
2022/10/09 10:05:36;;;;;;;4.75;2.70;;;17.80;51.90;;;;;;5119506;27;20411;-71
2022/10/09 10:08:20;;;;;;;3.60;2.50;;;18.00;51.00;;;;;;5120288;27;22402;-71
2022/10/09 10:10:48;;;;;;;4.00;2.70;;;18.00;50.50;;;;;;5123374;27;20878;-71
2022/10/09 10:13:17;;;;;;;3.03;2.70;;;17.90;50.80;;;;;;5128124;27;20417;-71
2022/10/09 10:15:53;;;;;;;3.37;2.93;;;18.00;50.70;;;;;;5130186;27;20499;-71
2022/10/09 10:18:23;;;;;;;3.60;2.80;;;17.90;50.50;;;;;;5128271;27;20513;-71
2022/10/09 10:20:52;;;;;;;3.27;2.30;;;17.90;50.70;;;;;;5130748;27;20395;-71
2022/10/09 10:23:25;;;;;;;3.20;2.50;;;18.10;51.20;;;;;;5117374;27;21025;-71
2022/10/09 10:25:55;;;;;;;4.03;2.70;;;18.20;50.00;;;;;;5121882;27;20424;-71
2022/10/09 10:28:27;;;;;;;4.05;2.58;;;18.40;49.90;;;;;;5125426;27;20460;-64
2022/10/09 10:30:56;;;;;;;3.70;2.50;;;18.50;49.70;;;;;;5119961;27;20422;-62
2022/10/09 10:33:28;;;;;;;2.95;2.45;;;18.70;49.40;;;;;;5119776;27;20468;-64
2022/10/09 10:35:58;;;;;;;4.05;2.40;;;19.00;49.20;;;;;;5119896;27;20410;-64
2022/10/09 10:38:29;;;;;;;3.30;2.20;;;19.40;47.70;;;;;;5119441;27;20402;-63
2022/10/09 10:41:03;;;;;;;2.78;2.10;;;19.90;46.00;;;;;;5119314;27;20931;-65
2022/10/09 10:43:35;;;;;;;4.43;2.30;;;19.80;46.40;;;;;;5120230;27;20713;-62
2022/10/09 10:46:10;;;;;;;4.13;2.30;;;19.60;46.50;;;;;;5118694;27;20417;-62
2022/10/09 10:48:41;;;;;;;3.63;2.30;;;19.80;46.80;;;;;;5118802;27;20425;-64
2022/10/09 10:51:25;;;;;;;3.05;2.30;;;19.80;45.60;;;;;;5120492;27;20416;-62
2022/10/09 10:54:04;;;;;;;3.45;2.20;;;19.70;46.10;;;;;;5119538;27;21502;-63
2022/10/09 10:56:35;;;;;;;3.08;2.10;;;19.80;46.10;;;;;;5119144;27;20914;-62
2022/10/09 10:59:16;;;;;;;3.53;2.10;;;19.80;45.80;;;;;;5119923;27;20784;-63
2022/10/09 11:01:51;;;;;;;3.55;2.28;;;19.90;46.10;;;;;;5117974;27;20422;-62
2022/10/09 11:04:39;;;;;;;2.78;2.20;;;20.20;45.50;;;;;;5118662;27;20467;-63
2022/10/09 11:07:17;;;;;;;2.90;2.00;;;20.60;44.80;;;;;;5119541;27;20407;-63
2022/10/09 11:09:52;;;;;;;3.55;2.10;;;21.00;43.60;;;;;;5118663;27;20419;-63
2022/10/09 11:12:25;;;;;;;2.80;1.92;;;21.20;42.90;;;;;;5119437;27;20437;-62
2022/10/09 11:14:59;;;;;;;2.60;2.10;;;21.20;42.30;;;;;;5117204;27;20498;-62
2022/10/09 11:17:34;;;;;;;2.85;1.70;;;21.00;42.20;;;;;;5119360;27;20475;-62
2022/10/09 11:20:17;;;;;;;2.20;2.00;;;20.90;42.70;;;;;;5119109;27;20422;-64
2022/10/09 11:23:00;;;;;;;3.60;1.90;;;20.70;43.10;;;;;;5117551;27;20868;-63
2022/10/09 11:25:30;;;;;;;4.10;2.05;;;21.00;42.50;;;;;;5120012;27;20424;-63
2022/10/09 11:28:02;;;;;;;3.20;2.00;;;20.90;41.50;;;;;;5119231;27;20412;-64
2022/10/09 11:30:36;;;;;;;3.03;1.95;;;20.90;42.40;;;;;;5118889;27;20422;-64
2022/10/09 11:33:12;;;;;;;5.20;2.10;;;21.10;41.90;;;;;;5118390;27;20443;-63
2022/10/09 11:35:44;;;;;;;2.78;1.80;;;21.20;41.40;;;;;;5121057;27;20812;-63
2022/10/09 11:38:24;;;;;;;4.10;1.80;;;21.00;41.30;;;;;;5122136;27;20402;-63
2022/10/09 11:40:51;;;;;;;2.97;2.00;;;21.00;40.40;;;;;;5122598;27;20407;-63
2022/10/09 11:43:38;;;;;;;3.05;1.90;;;21.00;41.30;;;;;;5118655;27;20433;-63
2022/10/09 11:46:11;;;;;;;4.78;2.00;;;21.10;41.00;;;;;;5117501;27;20414;-63
2022/10/09 11:48:44;;;;;;;3.20;1.90;;;21.30;40.40;;;;;;5119348;27;20573;-63
2022/10/09 11:51:19;;;;;;;2.20;1.40;;;21.30;40.10;;;;;;5118768;27;20434;-64
2022/10/09 11:53:46;;;;;;;2.10;1.38;;;21.30;40.20;;;;;;5118404;27;20436;-63
2022/10/09 11:56:21;;;;;;;3.78;1.63;;;21.30;40.10;;;;;;5118722;27;20900;-63
2022/10/09 11:58:57;;;;;;;4.50;1.80;;;21.40;40.00;;;;;;5117656;27;20411;-64
2022/10/09 12:01:26;;;;;;;3.10;1.60;;;21.50;39.30;;;;;;5118937;27;20796;-63
2022/10/09 12:04:01;;;;;;;2.45;1.50;;;21.70;37.60;;;;;;5119543;27;20431;-64
2022/10/09 12:06:31;;;;;;;2.97;1.30;;;21.70;37.80;;;;;;5119707;27;20415;-64
2022/10/09 12:09:00;;;;;;;1.70;1.30;;;22.10;36.10;;;;;;5119093;27;20422;-63
2022/10/09 12:11:27;;;;;;;2.73;1.40;;;22.00;35.60;;;;;;5118127;27;20408;-63
2022/10/09 12:13:55;;;;;;;1.73;1.30;;;21.80;35.40;;;;;;5116862;27;20438;-64
2022/10/09 12:16:32;;;;;;;2.65;1.30;;;21.70;35.90;;;;;;5116763;27;20428;-64
2022/10/09 12:19:01;;;;;;;2.10;1.23;;;21.50;34.30;;;;;;5118089;27;20404;-64
2022/10/09 12:21:35;;;;;;;2.03;1.10;;;21.50;34.50;;;;;;5117794;27;20413;-64
2022/10/09 12:24:02;;;;;;;2.30;1.00;;;21.30;35.20;;;;;;5117902;27;20909;-63
2022/10/09 12:26:29;;;;;;;1.77;0.90;;;21.20;35.90;;;;;;5117646;27;20428;-63
2022/10/09 12:29:00;;;;;;;1.30;0.90;;;21.20;33.70;;;;;;5118369;27;20426;-64
2022/10/09 12:31:31;;;;;;;2.45;1.15;;;21.30;33.30;;;;;;5117580;27;20416;-63
2022/10/09 12:34:03;;;;;;;3.42;1.30;;;21.40;33.90;;;;;;5116809;28;20416;-65
2022/10/09 12:36:32;;;;;;;2.65;1.40;;;21.50;34.10;;;;;;5117143;28;20404;-64
2022/10/09 12:39:12;;;;;;;2.83;1.10;;;21.50;34.10;;;;;;5117041;27;20408;-63
2022/10/09 12:41:40;;;;;;;2.00;1.10;;;21.60;35.00;;;;;;5117185;27;20522;-64
2022/10/09 12:44:16;;;;;;;2.45;1.10;;;21.70;34.80;;;;;;5117249;27;20432;-63
2022/10/09 12:46:43;;;;;;;2.20;1.10;;;22.00;33.80;;;;;;5117134;28;20491;-62
2022/10/09 12:49:19;;;;;;;3.00;1.23;;;22.20;33.30;;;;;;5116168;28;20428;-64
2022/10/09 12:51:53;;;;;;;2.72;1.10;;;22.20;33.20;;;;;;5117744;28;20408;-64
2022/10/09 12:54:23;;;;;;;2.20;1.10;;;22.60;33.00;;;;;;5117996;27;21152;-64
2022/10/09 12:56:51;;;;;;;2.20;1.10;;;23.10;32.40;;;;;;5115653;27;20426;-66
2022/10/09 12:59:19;;;;;;;2.00;1.15;;;23.30;31.40;;;;;;5117477;27;21085;-67
2022/10/09 13:01:47;;;;;;;2.38;0.95;;;23.20;30.70;;;;;;5119925;28;20762;-67
2022/10/09 13:04:29;;;;;;;1.73;1.00;;;22.90;30.80;;;;;;5127609;27;20419;-67
2022/10/09 13:06:59;;;;;;;1.80;1.10;;;22.50;31.20;;;;;;5126343;27;20487;-67